Aeroporto :







RITROVATECI SU...

 
LOGIN :

Iscrizione | Disclaimer

   EN    FR    IT 

 









Sommario :    VFR   VFR Marginale   IFR   IFR Intensivo   IFR Molto Intensivo
Visibilità : 
Base nubi : 
>= 8 km
>= 3000ft
5 / 8 km
1000 / 3000 ft
1500m / 5 km
500 / 1000 ft
800 / 1500m
200 / 500 ft
< 800m
< 200 ft
Simboli :   Temporali  Nebbia  Neve Forte  Precipitazioni Forti  Vento > 20 kt






- Altitudine del aeroporto : 20 ft
- Codice IATA : BOS


KBOS - General Edward Lawrence Logan International

ULTIMO METAR :
  • 160754Z 27015G22KT 10SM FEW050 01/M14 A3012 RMK AO2 SLP199 T00061144

METARs OBSOLETI :
  • 160654Z 28019G23KT 10SM FEW050 01/M14 A3009 RMK AO2 SLP187 T00061139
  • 160554Z 28012G25KT 10SM FEW050 01/M13 A3005 RMK AO2 SLP176 T00111128 10044 20011 51031

TAF KBOS
Valido dal 16 a 06 ore il 17 a 12 ore UTC


160540Z 1606/1712 28012G24KT P6SM SCT180
FM160900 27011KT P6SM FEW150
FM161200 27011G21KT P6SM SCT120
FM161900 27009KT P6SM BKN080
FM171000 14003KT 2SM -SN OVC025



MetMap, La meteo Aeronautica in un colpo d'occhio ! - Copyright ORBIFLY Dicembre 2007 - Disclaimer

ORBIFLY MET'MAP TEAM :

Programmazione e sviluppo : Alexandra Zaïnal
Concezione : Baudouin d'Aumeries
Aiuto per la programmazione : Marc-Olivier Méhu
Supporto tecnico e logistico : Manuel Goepfert
Aiuto per la traduzione : Arnaldo La Scala

Contatto : metmap@orbifly.com




FONTI E CREDITI :

   NOAA